Lourdes, Canada
Current Conditions -  °F | °C
As of 1:00 AM on Friday 28 Nov 2014 (Local Time) from CYJT Reporting Station
Overcast Overcast  
Wind Chill: 23°   Ceiling: 2500
Heat Index: 32°   Visibility: 15mi
Dew Point: 27°   Wind: 12mph
Humidity: 80%   Direction: 10°N
Pressure: 29.6"   Gusts: 17mph
Location:  48.65°N, 58.98°W
Report Text: CYJT 280400Z 01010G15KT 15SM OVC025 M00/M03 A2960 RMK SC8 SLP025
Loading
Personal Weather Stations






























Interactive Weather Map New forecast layout! Learn more

10-Day Weather Forecast

Advertisements
Track Severe Weather on mobile